Airport ID:KGOO
Update Time (UTC):17/05/2021 15:10
Wind Speed (Knots):0
Wind Direction (Magnetic):130
Temperature (°C):16
Dew Point (°C):9
Humidity (%):62
Altimeter (inHg):30.02
Density Altitude (Feet):
Visibility:10+
Clouds (Hundreds of feet):CLR
Present Weather:
METAR:METAR KGOO 171505Z AUTO 00000KT 10SM CLR 16/09 A3002 RMK A01

The data displayed is for advisory purposes only and is not to be used for flight planning or operations.